createdAt,value
2019-03-12T00:00:04.654Z,3.50
2019-03-12T00:02:33.494Z,3.60
2019-03-12T00:05:02.307Z,3.70
2019-03-12T00:07:31.140Z,3.60
2019-03-12T00:10:00.012Z,3.60
2019-03-12T00:12:28.832Z,3.50
2019-03-12T00:14:57.692Z,3.60
2019-03-12T00:17:26.622Z,3.60
2019-03-12T00:19:55.431Z,3.50
2019-03-12T00:22:24.568Z,3.70
2019-03-12T00:24:53.400Z,3.60
2019-03-12T00:27:22.341Z,3.50
2019-03-12T00:29:51.430Z,3.60
2019-03-12T00:32:20.263Z,3.60
2019-03-12T00:34:49.445Z,3.50
2019-03-12T00:37:18.335Z,3.50
2019-03-12T00:39:47.125Z,3.40
2019-03-12T00:42:16.068Z,3.40
2019-03-12T00:44:44.943Z,3.30
2019-03-12T00:47:13.805Z,3.30
2019-03-12T00:49:42.627Z,3.40
2019-03-12T00:52:11.517Z,3.40
2019-03-12T00:54:40.390Z,3.30
2019-03-12T00:57:09.370Z,3.30
2019-03-12T00:59:38.189Z,3.30
2019-03-12T01:02:07.331Z,3.30
2019-03-12T01:04:36.178Z,3.20
2019-03-12T01:07:05.063Z,3.20
2019-03-12T01:09:33.849Z,3.30
2019-03-12T01:12:02.741Z,3.30
2019-03-12T01:14:31.540Z,3.20
2019-03-12T01:17:00.413Z,3.20
2019-03-12T01:19:29.305Z,3.20
2019-03-12T01:21:58.203Z,3.20
2019-03-12T01:24:27.075Z,3.30
2019-03-12T01:26:55.850Z,3.40
2019-03-12T01:29:24.763Z,3.20
2019-03-12T01:31:53.685Z,3.20
2019-03-12T01:34:22.535Z,3.10
2019-03-12T01:36:51.294Z,3.20
2019-03-12T01:39:20.199Z,3.20
2019-03-12T01:41:49.031Z,3.30
2019-03-12T01:44:17.857Z,3.30
2019-03-12T01:46:46.689Z,3.40
2019-03-12T01:49:15.476Z,3.30
2019-03-12T01:51:44.256Z,3.40
2019-03-12T01:54:13.081Z,3.50
2019-03-12T01:56:41.892Z,3.60
2019-03-12T01:59:11.622Z,3.50
2019-03-12T02:01:40.534Z,3.60
2019-03-12T02:04:09.344Z,3.70
2019-03-12T02:06:38.122Z,3.70
2019-03-12T02:09:08.972Z,3.70
2019-03-12T02:11:37.727Z,3.70
2019-03-12T02:14:28.316Z,3.80
2019-03-12T02:16:57.116Z,3.80
2019-03-12T02:19:26.041Z,3.80
2019-03-12T02:21:54.897Z,3.70
2019-03-12T02:24:23.682Z,3.80
2019-03-12T02:26:52.512Z,3.70
2019-03-12T02:29:21.421Z,3.60
2019-03-12T02:31:50.245Z,3.70
2019-03-12T02:34:19.150Z,3.70
2019-03-12T02:36:48.123Z,3.90
2019-03-12T02:39:17.050Z,3.80
2019-03-12T02:41:45.925Z,3.80
2019-03-12T02:44:14.910Z,3.90
2019-03-12T02:46:43.680Z,4.00
2019-03-12T02:49:12.657Z,4.10
2019-03-12T02:51:41.493Z,4.10
2019-03-12T02:54:10.295Z,4.10
2019-03-12T02:56:39.137Z,4.00
2019-03-12T02:59:07.938Z,3.80
2019-03-12T03:01:36.805Z,4.00
2019-03-12T03:04:05.879Z,3.90
2019-03-12T03:06:40.665Z,4.20
2019-03-12T03:09:09.654Z,4.20
2019-03-12T03:11:38.530Z,4.20
2019-03-12T03:14:27.465Z,4.10
2019-03-12T03:16:56.279Z,4.20
2019-03-12T03:19:25.063Z,4.30
2019-03-12T03:21:54.033Z,4.20
2019-03-12T03:24:22.936Z,4.10
2019-03-12T03:26:51.780Z,4.20
2019-03-12T03:29:20.646Z,4.20
2019-03-12T03:31:49.723Z,4.00
2019-03-12T03:34:18.644Z,4.10
2019-03-12T03:36:47.485Z,4.20
2019-03-12T03:39:16.256Z,4.30
2019-03-12T03:41:45.114Z,4.30
2019-03-12T03:44:14.084Z,4.40
2019-03-12T03:46:42.947Z,4.30
2019-03-12T03:49:11.726Z,4.20
2019-03-12T03:51:40.633Z,4.30
2019-03-12T03:54:09.410Z,4.00
2019-03-12T03:56:38.300Z,4.20
2019-03-12T03:59:07.167Z,4.10
2019-03-12T04:01:36.028Z,4.30
2019-03-12T04:04:04.926Z,4.20
2019-03-12T04:06:34.465Z,4.30
2019-03-12T04:09:04.744Z,4.50
2019-03-12T04:11:33.569Z,4.50
2019-03-12T04:14:02.502Z,4.50
2019-03-12T04:16:31.381Z,4.60
2019-03-12T04:19:00.217Z,4.50
2019-03-12T04:21:29.141Z,4.50
2019-03-12T04:23:57.933Z,4.50
2019-03-12T04:26:26.784Z,4.40
2019-03-12T04:28:55.604Z,4.30
2019-03-12T04:31:24.444Z,4.20
2019-03-12T04:34:18.016Z,4.30
2019-03-12T04:36:48.203Z,4.10
2019-03-12T04:39:17.036Z,4.30
2019-03-12T04:41:45.958Z,4.40
2019-03-12T04:44:14.778Z,4.20
2019-03-12T04:46:43.544Z,4.20
2019-03-12T04:49:12.342Z,4.30
2019-03-12T04:51:41.107Z,4.20
2019-03-12T04:54:09.946Z,4.20
2019-03-12T04:56:38.724Z,4.30
2019-03-12T04:59:07.510Z,4.10
2019-03-12T05:01:36.482Z,4.30
2019-03-12T05:04:05.499Z,4.30
2019-03-12T05:06:34.276Z,4.30
2019-03-12T05:09:04.954Z,4.30
2019-03-12T05:11:33.814Z,4.40
2019-03-12T05:14:21.616Z,4.40
2019-03-12T05:16:51.021Z,4.30
2019-03-12T05:19:23.224Z,4.40
2019-03-12T05:21:52.599Z,4.30
2019-03-12T05:24:23.582Z,4.30
2019-03-12T05:26:52.862Z,4.20
2019-03-12T05:29:22.258Z,4.30
2019-03-12T05:31:51.969Z,4.20
2019-03-12T05:34:23.322Z,4.10
2019-03-12T05:36:52.924Z,4.20
2019-03-12T05:39:21.857Z,4.10
2019-03-12T05:41:51.092Z,4.10
2019-03-12T05:44:20.176Z,4.10
2019-03-12T05:46:49.447Z,4.10
2019-03-12T05:49:18.892Z,4.00
2019-03-12T05:51:48.243Z,4.10
2019-03-12T05:54:20.059Z,4.10
2019-03-12T05:56:52.040Z,4.10
2019-03-12T05:59:21.998Z,4.20
2019-03-12T06:01:52.384Z,4.10
2019-03-12T06:04:24.215Z,4.20
2019-03-12T06:06:53.505Z,4.20
2019-03-12T06:09:30.169Z,4.10
2019-03-12T06:11:57.630Z,4.10
2019-03-12T06:14:29.632Z,4.30
2019-03-12T06:16:58.522Z,4.20
2019-03-12T06:19:27.373Z,4.30
2019-03-12T06:21:56.166Z,4.20
2019-03-12T06:24:24.994Z,4.10
2019-03-12T06:26:53.848Z,4.10
2019-03-12T06:29:22.665Z,4.20
2019-03-12T06:31:59.404Z,4.20
2019-03-12T06:34:34.187Z,4.20
2019-03-12T06:37:25.274Z,4.30
2019-03-12T06:40:10.101Z,4.30
2019-03-12T06:42:46.147Z,4.30
2019-03-12T06:45:33.862Z,4.40
2019-03-12T06:48:15.873Z,4.40
2019-03-12T06:51:02.797Z,4.30
2019-03-12T06:53:44.489Z,4.40
2019-03-12T06:56:34.572Z,4.40
2019-03-12T06:59:22.588Z,4.40
2019-03-12T07:02:10.588Z,4.50
2019-03-12T07:04:47.246Z,4.50
2019-03-12T07:07:23.371Z,4.40
2019-03-12T07:10:23.323Z,4.30
2019-03-12T07:13:10.139Z,4.50
2019-03-12T07:15:47.519Z,4.40
2019-03-12T07:18:37.180Z,4.70
2019-03-12T07:21:14.381Z,4.60
2019-03-12T07:23:50.820Z,4.60
2019-03-12T07:26:29.146Z,4.60
2019-03-12T07:29:29.056Z,4.50
2019-03-12T07:32:19.657Z,4.60
2019-03-12T07:35:06.192Z,4.70
2019-03-12T07:37:46.786Z,4.60
2019-03-12T07:40:35.637Z,4.70
2019-03-12T07:43:26.593Z,4.70
2019-03-12T07:46:04.443Z,4.90
2019-03-12T07:48:51.260Z,5.20
2019-03-12T07:51:48.722Z,5.20
2019-03-12T07:54:35.499Z,5.30
2019-03-12T07:57:22.317Z,5.10
2019-03-12T08:00:16.040Z,5.30
2019-03-12T08:03:09.477Z,5.10
2019-03-12T08:05:44.657Z,5.30
2019-03-12T08:08:50.966Z,5.20
2019-03-12T08:11:32.725Z,5.30
2019-03-12T08:14:11.902Z,5.00
2019-03-12T08:16:59.717Z,5.10
2019-03-12T08:19:40.298Z,5.20
2019-03-12T08:22:28.273Z,5.00
2019-03-12T08:25:19.344Z,5.20
2019-03-12T08:28:08.105Z,5.30
2019-03-12T08:31:11.252Z,5.40
2019-03-12T08:33:57.849Z,5.70
2019-03-12T08:37:01.071Z,5.80
2019-03-12T08:39:42.436Z,5.90
2019-03-12T08:42:18.150Z,5.90
2019-03-12T08:45:05.142Z,5.60
2019-03-12T08:47:55.410Z,5.80
2019-03-12T08:50:33.526Z,5.70
2019-03-12T08:53:24.991Z,5.70
2019-03-12T08:56:10.415Z,5.70
2019-03-12T08:59:07.171Z,5.60
2019-03-12T09:01:52.267Z,5.60
2019-03-12T09:04:58.190Z,5.50
2019-03-12T09:07:39.088Z,5.80
2019-03-12T09:10:27.112Z,6.00
2019-03-12T09:13:17.832Z,6.20
2019-03-12T09:15:56.003Z,6.20
2019-03-12T09:18:39.123Z,6.20
2019-03-12T09:21:16.777Z,6.30
2019-03-12T09:24:19.933Z,6.40
2019-03-12T09:27:05.065Z,6.60
2019-03-12T09:30:04.813Z,6.60
2019-03-12T09:32:58.435Z,6.80
2019-03-12T09:35:52.025Z,6.80
2019-03-12T09:38:26.000Z,6.80
2019-03-12T09:41:29.265Z,7.10
2019-03-12T09:44:26.351Z,7.20
2019-03-12T09:47:01.369Z,7.20
2019-03-12T09:49:38.032Z,7.20
2019-03-12T09:52:31.920Z,7.50
2019-03-12T09:55:35.008Z,7.60
2019-03-12T09:58:25.491Z,7.90
2019-03-12T10:01:03.445Z,7.90
2019-03-12T10:03:41.637Z,7.90
2019-03-12T10:06:33.167Z,8.00
2019-03-12T10:09:17.144Z,7.80
2019-03-12T10:11:59.781Z,7.60
2019-03-12T10:14:50.951Z,7.70
2019-03-12T10:17:54.423Z,7.80
2019-03-12T10:20:41.252Z,7.90
2019-03-12T10:23:19.779Z,7.80
2019-03-12T10:25:57.326Z,8.20
2019-03-12T10:28:48.917Z,8.30
2019-03-12T10:31:27.889Z,8.40
2019-03-12T10:34:28.963Z,8.70
2019-03-12T10:37:10.975Z,8.50
2019-03-12T10:40:21.193Z,9.20
2019-03-12T10:43:23.782Z,9.70
2019-03-12T10:46:00.271Z,9.50
2019-03-12T10:48:30.063Z,8.60
2019-03-12T10:50:58.939Z,8.80
2019-03-12T10:53:27.873Z,9.00
2019-03-12T10:55:56.665Z,9.30
2019-03-12T10:58:25.636Z,8.80
2019-03-12T11:00:54.506Z,9.30
2019-03-12T11:03:23.434Z,9.50
2019-03-12T11:05:52.260Z,9.20
2019-03-12T11:08:21.237Z,9.30
2019-03-12T11:10:50.062Z,10.00
2019-03-12T11:13:18.875Z,11.00
2019-03-12T11:15:47.828Z,10.90
2019-03-12T11:18:16.767Z,10.40
2019-03-12T11:20:45.782Z,10.10
2019-03-12T11:23:14.694Z,10.30
2019-03-12T11:25:43.561Z,10.70
2019-03-12T11:28:12.547Z,10.70
2019-03-12T11:30:41.478Z,10.60
2019-03-12T11:33:10.369Z,10.50
2019-03-12T11:35:39.882Z,11.80
2019-03-12T11:38:09.093Z,12.70
2019-03-12T11:40:38.072Z,12.50
2019-03-12T11:43:07.451Z,11.40
2019-03-12T11:45:37.730Z,10.90
2019-03-12T11:48:07.088Z,10.70
2019-03-12T11:50:35.981Z,11.00
2019-03-12T11:53:04.998Z,11.90
2019-03-12T11:55:33.858Z,12.80
2019-03-12T11:58:02.704Z,13.90
2019-03-12T12:00:36.723Z,14.20
2019-03-12T12:03:05.721Z,13.40
2019-03-12T12:05:34.569Z,12.30
2019-03-12T12:08:03.451Z,11.00
2019-03-12T12:10:32.237Z,11.10
2019-03-12T12:13:01.103Z,10.70
2019-03-12T12:15:30.481Z,11.70
2019-03-12T12:17:59.257Z,12.60
2019-03-12T12:20:29.983Z,12.40
2019-03-12T12:22:58.731Z,12.10
2019-03-12T12:25:27.743Z,12.90
2019-03-12T12:27:56.719Z,12.90
2019-03-12T12:30:25.654Z,12.40
2019-03-12T12:32:54.543Z,13.00
2019-03-12T12:35:23.451Z,13.60
2019-03-12T12:37:52.384Z,14.30
2019-03-12T12:40:21.465Z,14.20
2019-03-12T12:42:50.479Z,14.90
2019-03-12T12:45:20.069Z,15.30
2019-03-12T12:47:48.940Z,15.40
2019-03-12T12:50:17.857Z,15.20
2019-03-12T12:52:46.776Z,14.70
2019-03-12T12:55:15.794Z,14.90
2019-03-12T12:57:44.717Z,15.00
2019-03-12T13:00:17.070Z,15.00
2019-03-12T13:02:46.128Z,14.40
2019-03-12T13:05:15.170Z,14.40
2019-03-12T13:07:44.049Z,15.40
2019-03-12T13:10:15.904Z,16.00
2019-03-12T13:12:46.448Z,15.50
2019-03-12T13:15:15.561Z,15.60
2019-03-12T13:17:44.514Z,15.10
2019-03-12T13:20:13.850Z,14.50
2019-03-12T13:22:42.628Z,13.90
2019-03-12T13:25:11.948Z,13.90
2019-03-12T13:27:42.566Z,13.40
2019-03-12T13:30:13.982Z,13.20
2019-03-12T13:32:42.804Z,13.30
2019-03-12T13:35:11.948Z,13.10
2019-03-12T13:37:40.853Z,12.90
2019-03-12T13:40:11.158Z,12.20
2019-03-12T13:42:40.025Z,12.10
2019-03-12T13:45:09.821Z,11.60
2019-03-12T13:47:38.773Z,11.30
2019-03-12T13:50:08.383Z,11.50
2019-03-12T13:52:37.284Z,11.70
2019-03-12T13:55:06.737Z,11.20
2019-03-12T13:57:35.594Z,12.00
2019-03-12T14:00:07.029Z,12.60
2019-03-12T14:02:35.970Z,12.30
2019-03-12T14:05:05.115Z,12.90
2019-03-12T14:07:33.998Z,13.20
2019-03-12T14:10:02.873Z,12.50
2019-03-12T14:12:31.632Z,12.00
2019-03-12T14:15:00.448Z,11.40
2019-03-12T14:17:29.378Z,11.10
2019-03-12T14:20:08.914Z,11.30
2019-03-12T14:22:37.798Z,11.50
2019-03-12T14:25:07.596Z,11.80
2019-03-12T14:27:36.575Z,11.90
2019-03-12T14:30:06.287Z,12.10
2019-03-12T14:32:35.298Z,12.20
2019-03-12T14:35:04.709Z,12.50
2019-03-12T14:37:36.016Z,12.20
2019-03-12T14:40:04.122Z,12.30
2019-03-12T14:42:33.164Z,11.80
2019-03-12T14:45:01.985Z,11.50
2019-03-12T14:47:30.848Z,11.30
2019-03-12T14:49:59.834Z,11.10
2019-03-12T14:52:33.031Z,10.90
2019-03-12T14:55:01.843Z,10.90
2019-03-12T14:57:30.684Z,10.80
2019-03-12T14:59:59.564Z,10.80
2019-03-12T15:02:28.500Z,10.80
2019-03-12T15:04:57.370Z,10.80
2019-03-12T15:07:26.295Z,10.60
2019-03-12T15:09:55.298Z,10.50
2019-03-12T15:12:24.206Z,10.30
2019-03-12T15:14:53.299Z,10.30
2019-03-12T15:17:22.198Z,10.40
2019-03-12T15:19:51.093Z,10.70
2019-03-12T15:22:20.072Z,10.50
2019-03-12T15:24:48.887Z,10.60
2019-03-12T15:27:17.768Z,10.80
2019-03-12T15:29:46.707Z,10.90
2019-03-12T15:32:15.495Z,11.10
2019-03-12T15:34:44.379Z,11.30
2019-03-12T15:37:13.137Z,11.20
2019-03-12T15:39:41.946Z,11.00
2019-03-12T15:42:10.826Z,10.80
2019-03-12T15:44:40.188Z,10.70
2019-03-12T15:47:09.117Z,10.40
2019-03-12T15:49:42.888Z,10.20
2019-03-12T15:52:08.580Z,10.10
2019-03-12T15:54:37.462Z,10.10
2019-03-12T15:57:06.614Z,9.90
2019-03-12T15:59:35.440Z,9.90
2019-03-12T16:02:04.512Z,10.00
2019-03-12T16:04:33.451Z,10.00
2019-03-12T16:07:02.486Z,9.70
2019-03-12T16:09:31.408Z,9.70
2019-03-12T16:12:00.313Z,9.60
2019-03-12T16:14:29.375Z,9.70
2019-03-12T16:16:58.475Z,9.80
2019-03-12T16:19:27.492Z,9.70
2019-03-12T16:21:56.257Z,9.70
2019-03-12T16:24:25.130Z,9.60
2019-03-12T16:26:54.045Z,9.40
2019-03-12T16:29:22.938Z,9.40
2019-03-12T16:31:52.291Z,9.50
2019-03-12T16:34:21.075Z,9.50
2019-03-12T16:36:52.495Z,9.50
2019-03-12T16:39:21.676Z,9.30
2019-03-12T16:41:50.483Z,9.10
2019-03-12T16:44:19.410Z,9.10
2019-03-12T16:46:52.340Z,9.20
2019-03-12T16:49:21.438Z,9.30
2019-03-12T16:51:50.327Z,9.30
2019-03-12T16:54:19.185Z,9.10
2019-03-12T16:56:48.067Z,9.10
2019-03-12T16:59:17.016Z,9.10
2019-03-12T17:01:47.183Z,9.00
2019-03-12T17:04:15.993Z,8.90
2019-03-12T17:06:44.985Z,9.00
2019-03-12T17:09:13.940Z,8.90
2019-03-12T17:11:42.794Z,9.00
2019-03-12T17:14:14.851Z,8.90
2019-03-12T17:16:43.673Z,8.90
2019-03-12T17:19:14.796Z,8.80
2019-03-12T17:21:43.626Z,8.90
2019-03-12T17:24:12.464Z,8.90
2019-03-12T17:26:41.291Z,8.80
2019-03-12T17:29:10.452Z,8.80
2019-03-12T17:31:41.595Z,8.80
2019-03-12T17:34:10.539Z,8.70
2019-03-12T17:36:39.633Z,8.80
2019-03-12T17:39:10.738Z,8.80
2019-03-12T17:41:39.705Z,8.80
2019-03-12T17:44:08.661Z,8.90
2019-03-12T17:46:37.620Z,8.70
2019-03-12T17:49:06.678Z,8.70
2019-03-12T17:51:35.642Z,8.80
2019-03-12T17:54:04.496Z,8.70
2019-03-12T17:56:33.435Z,8.80
2019-03-12T17:59:02.317Z,8.70
2019-03-12T18:01:31.208Z,8.60
2019-03-12T18:04:00.215Z,8.70
2019-03-12T18:06:34.783Z,8.70
2019-03-12T18:09:02.102Z,8.60
2019-03-12T18:11:30.928Z,8.60
2019-03-12T18:13:59.832Z,8.50
2019-03-12T18:16:40.360Z,8.50
2019-03-12T18:18:59.658Z,8.40
2019-03-12T18:21:28.708Z,8.50
2019-03-12T18:23:57.545Z,8.40
2019-03-12T18:26:26.443Z,8.40
2019-03-12T18:28:55.315Z,8.20
2019-03-12T18:31:24.227Z,8.30
2019-03-12T18:33:53.166Z,8.20
2019-03-12T18:36:25.730Z,8.30
2019-03-12T18:38:54.685Z,8.10
2019-03-12T18:41:23.586Z,8.20
2019-03-12T18:43:52.522Z,8.30
2019-03-12T18:46:21.463Z,8.00
2019-03-12T18:48:50.494Z,8.00
2019-03-12T18:51:22.560Z,8.00
2019-03-12T18:53:51.507Z,8.00
2019-03-12T18:56:20.564Z,8.00
2019-03-12T18:58:49.707Z,8.00
2019-03-12T19:01:21.554Z,8.10
2019-03-12T19:03:50.590Z,8.10
2019-03-12T19:06:19.698Z,8.10
2019-03-12T19:08:50.799Z,8.10
2019-03-12T19:11:19.966Z,8.10
2019-03-12T19:13:50.592Z,8.20
2019-03-12T19:16:19.739Z,8.10
2019-03-12T19:18:48.647Z,8.10
2019-03-12T19:21:17.728Z,8.20
2019-03-12T19:23:46.679Z,8.00
2019-03-12T19:26:15.632Z,8.20
2019-03-12T19:28:44.693Z,8.10
2019-03-12T19:31:24.582Z,8.10
2019-03-12T19:33:54.745Z,8.00
2019-03-12T19:36:23.674Z,8.10
2019-03-12T19:38:52.505Z,8.00
2019-03-12T19:41:21.649Z,8.10
2019-03-12T19:43:50.857Z,8.10
2019-03-12T19:46:19.860Z,8.10
2019-03-12T19:48:48.882Z,8.20
2019-03-12T19:51:18.046Z,8.20
2019-03-12T19:53:47.012Z,8.20
2019-03-12T19:56:15.855Z,8.20
2019-03-12T19:58:44.881Z,8.20
2019-03-12T20:01:13.916Z,8.10
2019-03-12T20:03:42.895Z,8.10
2019-03-12T20:06:11.959Z,8.10
2019-03-12T20:08:41.237Z,8.00
2019-03-12T20:11:56.966Z,7.90
2019-03-12T20:15:02.215Z,7.60
2019-03-12T20:18:04.215Z,7.70
2019-03-12T20:21:13.789Z,7.70
2019-03-12T20:24:31.992Z,7.70
2019-03-12T20:27:37.438Z,7.70
2019-03-12T20:30:42.007Z,7.60
2019-03-12T20:34:16.130Z,7.60
2019-03-12T20:37:34.524Z,7.60
2019-03-12T20:40:43.238Z,7.60
2019-03-12T20:44:12.333Z,7.70
2019-03-12T20:47:18.365Z,7.60
2019-03-12T20:50:34.767Z,7.70
2019-03-12T20:53:41.237Z,7.80
2019-03-12T20:56:51.951Z,7.60
2019-03-12T21:00:01.836Z,7.70
2019-03-12T21:03:15.568Z,7.70
2019-03-12T21:06:18.901Z,7.60
2019-03-12T21:09:40.461Z,7.60
2019-03-12T21:13:02.000Z,7.60
2019-03-12T21:16:21.161Z,7.60
2019-03-12T21:19:27.497Z,7.50
2019-03-12T21:22:31.815Z,7.60
2019-03-12T21:25:54.315Z,7.60
2019-03-12T21:28:50.949Z,7.60
2019-03-12T21:31:19.742Z,7.60
2019-03-12T21:33:48.630Z,7.60
2019-03-12T21:36:17.542Z,7.50
2019-03-12T21:38:46.435Z,7.70
2019-03-12T21:41:15.468Z,7.60
2019-03-12T21:43:44.457Z,7.70
2019-03-12T21:46:13.444Z,7.70
2019-03-12T21:48:42.449Z,7.60
2019-03-12T21:51:11.493Z,7.80
2019-03-12T21:53:40.334Z,7.80
2019-03-12T21:56:09.128Z,7.80
2019-03-12T21:58:37.915Z,7.80
2019-03-12T22:01:06.844Z,7.80
2019-03-12T22:03:35.656Z,7.90
2019-03-12T22:06:04.662Z,7.80
2019-03-12T22:08:33.476Z,7.90
2019-03-12T22:11:02.407Z,7.80
2019-03-12T22:13:31.211Z,7.70
2019-03-12T22:16:00.085Z,7.70
2019-03-12T22:18:28.897Z,7.80
2019-03-12T22:20:57.735Z,7.80
2019-03-12T22:23:39.490Z,7.70
2019-03-12T22:26:08.353Z,7.80
2019-03-12T22:28:37.230Z,7.80
2019-03-12T22:31:06.182Z,7.70
2019-03-12T22:33:35.085Z,7.80
2019-03-12T22:36:04.020Z,7.90
2019-03-12T22:38:33.232Z,7.90
2019-03-12T22:41:05.801Z,8.00
2019-03-12T22:43:39.532Z,8.00
2019-03-12T22:46:08.322Z,8.00
2019-03-12T22:48:37.421Z,7.90
2019-03-12T22:51:06.174Z,7.80
2019-03-12T22:53:34.992Z,7.90
2019-03-12T22:56:03.859Z,7.90
2019-03-12T22:58:32.688Z,7.80
2019-03-12T23:01:05.987Z,7.80
2019-03-12T23:03:35.958Z,7.80
2019-03-12T23:06:05.225Z,8.00
2019-03-12T23:08:35.891Z,8.00
2019-03-12T23:11:05.001Z,8.10
2019-03-12T23:13:33.983Z,8.20
2019-03-12T23:16:03.231Z,8.20
2019-03-12T23:18:32.191Z,8.10
2019-03-12T23:21:01.231Z,8.00
2019-03-12T23:23:30.120Z,8.10
2019-03-12T23:25:58.984Z,8.20
2019-03-12T23:28:27.860Z,8.20
2019-03-12T23:30:56.714Z,8.20
2019-03-12T23:33:29.920Z,8.20
2019-03-12T23:35:58.723Z,8.20
2019-03-12T23:38:27.627Z,8.20
2019-03-12T23:40:56.571Z,8.30
2019-03-12T23:43:25.368Z,8.40
2019-03-12T23:45:54.221Z,8.40
2019-03-12T23:48:23.104Z,8.50
2019-03-12T23:50:51.955Z,8.60
2019-03-12T23:53:20.838Z,8.50
2019-03-12T23:55:49.812Z,8.50
2019-03-12T23:58:18.708Z,8.70
